Aurillac, France

6:52 PM CEST on March 31, 2015 (GMT +0200)
Aurillac | | Change Station
CLOSE
Current Station
Airport
Location: Aurillac,
Elevation: 2100 ft
Nearby Weather Stations

Elev 2100 ft 44.90 °N, 2.42 °E | Updated 22 minutes ago

Mostly Cloudy
Mostly Cloudy
50 °F
Feels Like 50 °F
N
16
Wind Variable Wind from WNW

Today
High -- | Low -- °F
--% Chance of Precip.
Yesterday
High -- | Low -- °F
Precip. -- in
7:33 AM 8:16 PM
Waxing Gibbous, 87% visible
Pressure 30.24 in
Visibility 6.2 miles
Clouds Mostly Cloudy 2100 ft
Mostly Cloudy 2900 ft
Mostly Cloudy 4100 ft
Dew Point 45 °F
Humidity 82%
Rainfall 0.00 in
Snow Depth Not available.
UV 1 out of 12
Pollen Not available.
Air Quality Not available.
Flu Activity Not available.
METAR LFLW 311630Z AUTO 30014KT 9999 BKN021 BKN029 BKN041 10/07 Q1024

More Conditions Fewer Conditions

Pressure 30.24 in
Visibility 6.2 miles
Clouds Mostly Cloudy 2100 ft
Mostly Cloudy 2900 ft
Mostly Cloudy 4100 ft
Dew Point 45 °F
Humidity 82%
Rainfall 0.00 in
Snow Depth Not available.
UV 1 out of 12
Pollen Not available.
Air Quality Not available.
Flu Activity Not available.
METAR LFLW 311630Z AUTO 30014KT 9999 BKN021 BKN029 BKN041 10/07 Q1024

More Conditions Fewer Conditions

10-Day Weather Forecast

Almanac

Astronomy

Mar. 31, 2015 Rise Set
Actual Time
Civil Twilight
Nautical Twilight
Astronomical Twilight
Moon
Length of Visible Light
Length of Day
Tomorrow will be .
, % of the Moon is Illuminated

Today's Extremes

Country Highs Country Lows

Community

WunderPhotos

Upload Photos

1,809,787 photos uploaded!

WunderBlogs® & News

Nearby

Air Quality

  Air Quality AQ Index Pollutant
Not available.

Snow Depth

Station Depth Elevation

Earthquake Activity

City Distance Mag. Time & Date
Minimum magnitude displayed is 2.5.

Coastal Water Temperatures

Place Temperature

Stations

Nearby Weather Stations

Station Location Temp. Windchill Dew Point Humidity Wind Precip. Elev Updated Type